Cleveland, Ohio
Traffic Map
Current Weather Conditions
Cleveland, Ohio
Overcast
Overcast
63°
Feels Like: 63°
Wind Chill: 63° Ceiling: 5500
Heat Index: 63° Visibility: 10mi
Dew Point: 48° Wind: 9mph
Humidity: 58% Direction: 350° (N)
Pressure: 29.97in Gusts: 0mph
Raw Report DataKBKL 291153Z 35008KT 10SM SCT043 OVC055 17/09 A2997 RMK AO2 SLP148 T01720089 10172 20161 53008 $
Traffic Incident Summary
Active as of:
Severity:
Category:
InformationThere was an issue retrieving the traffic information for this location. Please try a different location or try again shortly.
Advertisements
Track Severe Weather on mobile